EDT,Max TemperatureF,Mean TemperatureF,Min TemperatureF,Max Dew PointF,MeanDew PointF,Min DewpointF,Max Humidity, Mean Humidity, Min Humidity, Max Sea Level PressureIn, Mean Sea Level PressureIn, Min Sea Level PressureIn, Max VisibilityMiles, Mean VisibilityMiles, Min VisibilityMiles, Max Wind SpeedMPH, Mean Wind SpeedMPH, Max Gust SpeedMPH,PrecipitationIn, CloudCover, Events, WindDirDegrees
2013-4-1,49,41,33,43,26,13,86,56,25,30.12,29.96,29.81,10,9,1,22,10,28,0.00,5,,279
2013-4-2,46,36,26,17,12,9,53,39,25,30.28,30.21,30.12,10,10,10,18,6,25,0.00,0,,292
2013-4-3,48,37,25,17,13,9,63,43,23,30.42,30.37,30.27,10,10,10,18,6,24,0.00,0,,333
2013-4-4,54,41,27,24,15,10,63,42,21,30.41,30.21,30.04,10,10,10,13,4,18,0.00,0,,144
2013-4-5,64,47,30,35,26,19,92,57,21,30.19,30.04,29.99,10,9,2,17,5,25,0.00,0,,349
2013-4-6,63,46,28,23,14,5,66,38,10,30.30,30.19,30.01,10,10,10,12,4,16,0.00,0,,69
2013-4-7,74,65,56,50,38,27,72,50,28,30.02,29.98,29.94,10,10,10,25,11,35,T,3,,202
2013-4-8,76,62,47,49,46,42,93,64,35,30.05,30.00,29.94,10,10,8,21,8,33,0.00,3,,203
2013-4-9,83,69,54,54,49,47,77,54,31,30.12,30.04,29.96,10,10,10,20,6,30,0.00,3,,212
2013-4-10,86,75,64,56,53,49,67,51,34,30.00,29.94,29.83,10,10,10,25,10,35,0.00,3,,222
2013-4-11,79,67,55,56,54,52,86,64,42,29.88,29.76,29.57,10,10,10,21,5,31,T,2,,130
2013-4-12,66,56,46,59,46,32,90,65,40,29.94,29.71,29.52,10,10,4,23,10,31,0.14,7,Rain,239
2013-4-13,61,49,37,34,31,29,76,53,29,30.07,29.99,29.95,10,10,10,21,8,30,0.00,3,,256
2013-4-14,70,51,32,36,33,30,89,58,26,30.18,30.07,29.98,10,10,7,10,5,15,0.00,1,,65
2013-4-15,68,63,58,49,46,36,67,53,39,30.09,30.05,29.97,10,10,10,20,9,30,0.00,6,,152
2013-4-16,83,71,59,61,55,49,97,67,37,30.21,30.12,30.03,10,9,2,24,9,31,0.71,3,Rain-Thunderstorm,211
2013-4-17,71,64,57,59,58,55,100,83,66,30.26,30.19,30.08,9,4,0,8,1,13,0.01,5,Fog,61
2013-4-18,87,72,57,57,55,50,93,62,31,30.08,29.92,29.76,10,9,6,21,10,30,0.00,2,,163
2013-4-19,73,57,41,60,45,29,87,67,46,29.99,29.74,29.55,10,9,2,26,13,38,0.19,6,Rain,227
2013-4-20,54,44,34,30,26,23,75,54,32,30.44,30.21,30.02,10,10,10,23,8,29,0.00,3,,274
2013-4-21,58,43,28,27,23,16,92,56,20,30.59,30.50,30.44,10,10,7,14,5,18,0.00,0,,48
2013-4-22,70,55,40,33,29,23,70,47,23,30.43,30.33,30.22,10,10,10,14,5,18,0.00,0,,81
2013-4-23,73,55,37,42,35,25,76,53,29,30.24,30.13,29.96,10,10,10,14,4,17,0.00,0,,179
2013-4-24,69,55,40,55,44,35,86,64,42,30.25,29.97,29.83,10,9,2,32,11,39,0.30,6,Rain-Thunderstorm,229
2013-4-25,59,47,34,37,32,27,96,63,30,30.39,30.31,30.27,10,10,2,18,6,24,0.00,4,,247
2013-4-26,65,50,34,38,32,24,96,60,23,30.50,30.43,30.39,10,10,9,10,2,15,0.00,1,Fog,23
2013-4-27,73,55,37,41,36,27,92,56,20,30.40,30.29,30.16,10,10,6,14,3,17,0.00,1,,165
2013-4-28,68,61,54,52,49,43,93,73,52,30.16,30.02,29.91,10,9,3,21,8,31,0.26,7,Rain,147
2013-4-29,65,59,53,55,52,49,86,75,63,30.04,30.00,29.95,10,9,6,12,3,17,0.01,8,Rain,210
2013-4-30,80,64,47,55,49,45,100,68,35,30.13,30.07,30.04,10,5,0,9,3,13,0.00,1,Fog,50